PWSweather.com
Personal Weather Stations
Station Observations
SEVANL01
SevillaES 41004

SevillaES 41004

Lat: 37.383633, Lon: -5.985787

Elevation: 19.685

Station Type: Davis Vantage Pro2

www.tiempoensevilla.es

High Low Average
Temperature 87.9°F31.1°C 66.9°F19.4°C 75.7°F24.3°C
Dew Point 67.5°F19.7°C 61.1°F16.2°C 63.5°F17.5°C
Winds 8.6 mph 13.8 kmh 1.0 mph 1.6 kmh 4.0 mph SW6.4 kmh SW
Wind Gusts 17.0 mph27.4 kmh 4.0 mph6.4 kmh 9.0 mph14.5 kmh
Humidity 83% 49% 67%
Pressure 30.04 in1017.3 mb 29.94 in1013.9 mb -
Precipitation 0.00 in0.0 mm - -
Hour Temp Dew Point Humidity Winds Wind Gusts Pressure Precip Precip Rate Daily Precip Total
12:00 AM 70.2°F21.2°C 62.3°F16.8°C 76% 3.6 mph SW5.8 kmh SW 10.0 mph16.1 kmh 30.03 in1016.9 mb 0.00 in0.0 mm 0.00 in0.0 mm 0.00 in0.0 mm
12:20 AM 70.1°F21.2°C 62.2°F16.8°C 76% 4.0 mph SW6.4 kmh SW 9.0 mph14.5 kmh 30.03 in1016.9 mb 0.00 in0.0 mm 0.00 in0.0 mm 0.00 in0.0 mm
12:40 AM 69.9°F21.1°C 62.4°F16.9°C 77% 3.9 mph SW6.3 kmh SW 10.0 mph16.1 kmh 30.03 in1016.9 mb 0.00 in0.0 mm 0.00 in0.0 mm 0.00 in0.0 mm
01:00 AM 69.9°F21.1°C 62.4°F16.9°C 77% 3.0 mph SW4.8 kmh SW 6.0 mph9.7 kmh 30.03 in1016.9 mb 0.00 in0.0 mm 0.00 in0.0 mm 0.00 in0.0 mm
01:20 AM 69.7°F20.9°C 62.2°F16.8°C 77% 3.7 mph SW6.0 kmh SW 10.0 mph16.1 kmh 30.02 in1016.6 mb 0.00 in0.0 mm 0.00 in0.0 mm 0.00 in0.0 mm
01:40 AM 69.7°F20.9°C 62.2°F16.8°C 77% 2.7 mph SW4.3 kmh SW 8.0 mph12.9 kmh 30.02 in1016.6 mb 0.00 in0.0 mm 0.00 in0.0 mm 0.00 in0.0 mm
02:00 AM 69.0°F20.6°C 61.9°F16.6°C 78% 2.9 mph SSW4.7 kmh SSW 8.0 mph12.9 kmh 30.02 in1016.6 mb 0.00 in0.0 mm 0.00 in0.0 mm 0.00 in0.0 mm
02:20 AM 68.7°F20.4°C 61.9°F16.6°C 79% 3.4 mph SSW5.5 kmh SSW 6.0 mph9.7 kmh 30.02 in1016.6 mb 0.00 in0.0 mm 0.00 in0.0 mm 0.00 in0.0 mm
02:40 AM 68.7°F20.4°C 61.9°F16.6°C 79% 3.1 mph SW5.0 kmh SW 7.0 mph11.3 kmh 30.02 in1016.6 mb 0.00 in0.0 mm 0.00 in0.0 mm 0.00 in0.0 mm
03:00 AM 68.3°F20.2°C 61.9°F16.6°C 80% 3.1 mph SW5.0 kmh SW 7.0 mph11.3 kmh 30.02 in1016.6 mb 0.00 in0.0 mm 0.00 in0.0 mm 0.00 in0.0 mm
03:20 AM 68.1°F20.1°C 61.7°F16.5°C 80% 3.0 mph SSW4.8 kmh SSW 7.0 mph11.3 kmh 30.02 in1016.6 mb 0.00 in0.0 mm 0.00 in0.0 mm 0.00 in0.0 mm
03:40 AM 67.8°F19.9°C 61.8°F16.6°C 81% 3.6 mph SSW5.8 kmh SSW 8.0 mph12.9 kmh 30.01 in1016.3 mb 0.00 in0.0 mm 0.00 in0.0 mm 0.00 in0.0 mm
04:00 AM 67.6°F19.8°C 61.6°F16.4°C 81% 4.0 mph SW6.4 kmh SW 8.0 mph12.9 kmh 30.00 in1015.9 mb 0.00 in0.0 mm 0.00 in0.0 mm 0.00 in0.0 mm
04:20 AM 67.7°F19.8°C 61.7°F16.5°C 81% 3.0 mph SW4.8 kmh SW 9.0 mph14.5 kmh 30.00 in1015.9 mb 0.00 in0.0 mm 0.00 in0.0 mm 0.00 in0.0 mm
04:40 AM 67.2°F19.6°C 61.5°F16.4°C 82% 3.2 mph SSW5.1 kmh SSW 8.0 mph12.9 kmh 30.00 in1015.9 mb 0.00 in0.0 mm 0.00 in0.0 mm 0.00 in0.0 mm
05:00 AM 67.1°F19.5°C 61.4°F16.3°C 82% 3.0 mph SW4.8 kmh SW 7.0 mph11.3 kmh 30.00 in1015.9 mb 0.00 in0.0 mm 0.00 in0.0 mm 0.00 in0.0 mm
05:20 AM 67.2°F19.6°C 61.5°F16.4°C 82% 2.0 mph SW3.2 kmh SW 5.0 mph8.0 kmh 30.01 in1016.3 mb 0.00 in0.0 mm 0.00 in0.0 mm 0.00 in0.0 mm
05:40 AM 67.1°F19.5°C 61.4°F16.3°C 82% 2.0 mph SW3.2 kmh SW 6.0 mph9.7 kmh 30.01 in1016.3 mb 0.00 in0.0 mm 0.00 in0.0 mm 0.00 in0.0 mm
06:00 AM 67.2°F19.6°C 61.5°F16.4°C 82% 1.5 mph SSW2.4 kmh SSW 4.0 mph6.4 kmh 30.02 in1016.6 mb 0.00 in0.0 mm 0.00 in0.0 mm 0.00 in0.0 mm
06:20 AM 66.9°F19.4°C 61.6°F16.4°C 83% 2.1 mph S3.4 kmh S 5.0 mph8.0 kmh 30.02 in1016.6 mb 0.00 in0.0 mm 0.00 in0.0 mm 0.00 in0.0 mm
06:40 AM 67.2°F19.6°C 61.9°F16.6°C 83% 1.6 mph SSW2.6 kmh SSW 5.0 mph8.0 kmh 30.02 in1016.6 mb 0.00 in0.0 mm 0.00 in0.0 mm 0.00 in0.0 mm
07:00 AM 67.7°F19.8°C 62.0°F16.7°C 82% 1.3 mph SW2.1 kmh SW 4.0 mph6.4 kmh 30.03 in1016.9 mb 0.00 in0.0 mm 0.00 in0.0 mm 0.00 in0.0 mm
07:20 AM 67.6°F19.8°C 61.6°F16.4°C 81% 2.0 mph S3.2 kmh S 6.0 mph9.7 kmh 30.04 in1017.3 mb 0.00 in0.0 mm 0.00 in0.0 mm 0.00 in0.0 mm
07:40 AM 68.0°F20.0°C 61.9°F16.6°C 81% 2.3 mph SW3.7 kmh SW 5.0 mph8.0 kmh 30.04 in1017.3 mb 0.00 in0.0 mm 0.00 in0.0 mm 0.00 in0.0 mm
08:00 AM 68.6°F20.3°C 62.2°F16.8°C 80% 2.0 mph WSW3.2 kmh WSW 4.0 mph6.4 kmh 30.04 in1017.3 mb 0.00 in0.0 mm 0.00 in0.0 mm 0.00 in0.0 mm
08:20 AM 68.6°F20.3°C 62.2°F16.8°C 80% 2.2 mph SW3.5 kmh SW 7.0 mph11.3 kmh 30.04 in1017.3 mb 0.00 in0.0 mm 0.00 in0.0 mm 0.00 in0.0 mm
08:40 AM 69.2°F20.7°C 62.0°F16.7°C 78% 3.6 mph SW5.8 kmh SW 7.0 mph11.3 kmh 30.04 in1017.3 mb 0.00 in0.0 mm 0.00 in0.0 mm 0.00 in0.0 mm
09:00 AM 71.0°F21.7°C 62.7°F17.1°C 75% 1.0 mph SE1.6 kmh SE 5.0 mph8.0 kmh 30.04 in1017.3 mb 0.00 in0.0 mm 0.00 in0.0 mm 0.00 in0.0 mm
09:20 AM 71.7°F22.1°C 63.0°F17.2°C 74% 1.4 mph W2.3 kmh W 4.0 mph6.4 kmh 30.04 in1017.3 mb 0.00 in0.0 mm 0.00 in0.0 mm 0.00 in0.0 mm
09:40 AM 72.9°F22.7°C 62.9°F17.2°C 71% 1.9 mph S3.1 kmh S 6.0 mph9.7 kmh 30.03 in1016.9 mb 0.00 in0.0 mm 0.00 in0.0 mm 0.00 in0.0 mm
10:00 AM 72.7°F22.6°C 62.8°F17.1°C 71% 2.0 mph NW3.2 kmh NW 5.0 mph8.0 kmh 30.03 in1016.9 mb 0.00 in0.0 mm 0.00 in0.0 mm 0.00 in0.0 mm
10:20 AM 74.5°F23.6°C 63.2°F17.3°C 68% 1.0 mph SE1.6 kmh SE 5.0 mph8.0 kmh 30.04 in1017.3 mb 0.00 in0.0 mm 0.00 in0.0 mm 0.00 in0.0 mm
10:40 AM 74.9°F23.8°C 63.2°F17.3°C 67% 1.3 mph WSW2.1 kmh WSW 7.0 mph11.3 kmh 30.04 in1017.3 mb 0.00 in0.0 mm 0.00 in0.0 mm 0.00 in0.0 mm
11:00 AM 75.8°F24.3°C 63.2°F17.3°C 65% 2.3 mph SW3.7 kmh SW 8.0 mph12.9 kmh 30.03 in1016.9 mb 0.00 in0.0 mm 0.00 in0.0 mm 0.00 in0.0 mm
11:20 AM 77.1°F25.1°C 64.0°F17.8°C 64% 2.0 mph SE3.2 kmh SE 5.0 mph8.0 kmh 30.03 in1016.9 mb 0.00 in0.0 mm 0.00 in0.0 mm 0.00 in0.0 mm
11:40 AM 77.8°F25.4°C 64.2°F17.9°C 63% 2.2 mph S3.5 kmh S 5.0 mph8.0 kmh 30.03 in1016.9 mb 0.00 in0.0 mm 0.00 in0.0 mm 0.00 in0.0 mm
12:00 PM 78.7°F25.9°C 65.0°F18.3°C 63% 2.0 mph SW3.2 kmh SW 6.0 mph9.7 kmh 30.02 in1016.6 mb 0.00 in0.0 mm 0.00 in0.0 mm 0.00 in0.0 mm
12:20 PM 79.9°F26.6°C 64.8°F18.2°C 60% 2.1 mph SSW3.4 kmh SSW 8.0 mph12.9 kmh 30.02 in1016.6 mb 0.00 in0.0 mm 0.00 in0.0 mm 0.00 in0.0 mm
12:40 PM 79.6°F26.4°C 65.0°F18.3°C 61% 3.2 mph WSW5.1 kmh WSW 10.0 mph16.1 kmh 30.01 in1016.3 mb 0.00 in0.0 mm 0.00 in0.0 mm 0.00 in0.0 mm
01:00 PM 80.5°F26.9°C 65.3°F18.5°C 60% 4.0 mph WSW6.4 kmh WSW 9.0 mph14.5 kmh 30.00 in1015.9 mb 0.00 in0.0 mm 0.00 in0.0 mm 0.00 in0.0 mm
01:20 PM 81.6°F27.6°C 65.9°F18.8°C 59% 4.0 mph S6.4 kmh S 9.0 mph14.5 kmh 30.00 in1015.9 mb 0.00 in0.0 mm 0.00 in0.0 mm 0.00 in0.0 mm
01:40 PM 82.0°F27.8°C 65.8°F18.8°C 58% 4.8 mph SW7.7 kmh SW 11.0 mph17.7 kmh 29.99 in1015.6 mb 0.00 in0.0 mm 0.00 in0.0 mm 0.00 in0.0 mm
02:00 PM 83.1°F28.4°C 65.8°F18.8°C 56% 4.5 mph S7.2 kmh S 9.0 mph14.5 kmh 29.99 in1015.6 mb 0.00 in0.0 mm 0.00 in0.0 mm 0.00 in0.0 mm
02:20 PM 84.2°F29.0°C 65.8°F18.8°C 54% 4.7 mph S7.6 kmh S 9.0 mph14.5 kmh 29.98 in1015.2 mb 0.00 in0.0 mm 0.00 in0.0 mm 0.00 in0.0 mm
02:40 PM 84.7°F29.3°C 66.2°F19.0°C 54% 3.7 mph SW6.0 kmh SW 10.0 mph16.1 kmh 29.97 in1014.9 mb 0.00 in0.0 mm 0.00 in0.0 mm 0.00 in0.0 mm
03:00 PM 85.3°F29.6°C 65.7°F18.7°C 52% 4.2 mph SW6.8 kmh SW 11.0 mph17.7 kmh 29.97 in1014.9 mb 0.00 in0.0 mm 0.00 in0.0 mm 0.00 in0.0 mm
03:20 PM 86.1°F30.1°C 66.4°F19.1°C 52% 3.9 mph S6.3 kmh S 9.0 mph14.5 kmh 29.96 in1014.6 mb 0.00 in0.0 mm 0.00 in0.0 mm 0.00 in0.0 mm
03:40 PM 86.0°F30.0°C 66.3°F19.1°C 52% 4.7 mph S7.6 kmh S 11.0 mph17.7 kmh 29.96 in1014.6 mb 0.00 in0.0 mm 0.00 in0.0 mm 0.00 in0.0 mm
04:00 PM 87.1°F30.6°C 66.2°F19.0°C 50% 4.6 mph SW7.4 kmh SW 10.0 mph16.1 kmh 29.96 in1014.6 mb 0.00 in0.0 mm 0.00 in0.0 mm 0.00 in0.0 mm
04:20 PM 87.5°F30.8°C 66.0°F18.9°C 49% 4.6 mph S7.4 kmh S 11.0 mph17.7 kmh 29.95 in1014.2 mb 0.00 in0.0 mm 0.00 in0.0 mm 0.00 in0.0 mm
04:40 PM 87.9°F31.1°C 66.4°F19.1°C 49% 4.4 mph SW7.1 kmh SW 14.0 mph22.5 kmh 29.95 in1014.2 mb 0.00 in0.0 mm 0.00 in0.0 mm 0.00 in0.0 mm
05:00 PM 86.7°F30.4°C 67.5°F19.7°C 53% 7.1 mph SW11.4 kmh SW 16.0 mph25.7 kmh 29.95 in1014.2 mb 0.00 in0.0 mm 0.00 in0.0 mm 0.00 in0.0 mm
05:20 PM 86.6°F30.3°C 67.4°F19.7°C 53% 6.4 mph SW10.3 kmh SW 16.0 mph25.7 kmh 29.95 in1014.2 mb 0.00 in0.0 mm 0.00 in0.0 mm 0.00 in0.0 mm
05:40 PM 85.8°F29.9°C 67.2°F19.6°C 54% 8.6 mph SW13.8 kmh SW 16.0 mph25.7 kmh 29.95 in1014.2 mb 0.00 in0.0 mm 0.00 in0.0 mm 0.00 in0.0 mm
06:00 PM 85.4°F29.7°C 66.9°F19.4°C 54% 6.5 mph SW10.5 kmh SW 16.0 mph25.7 kmh 29.94 in1013.9 mb 0.00 in0.0 mm 0.00 in0.0 mm 0.00 in0.0 mm
06:20 PM 85.0°F29.4°C 66.0°F18.9°C 53% 7.9 mph SW12.7 kmh SW 17.0 mph27.4 kmh 29.95 in1014.2 mb 0.00 in0.0 mm 0.00 in0.0 mm 0.00 in0.0 mm
06:40 PM 85.0°F29.4°C 66.0°F18.9°C 53% 7.6 mph SW12.2 kmh SW 15.0 mph24.1 kmh 29.95 in1014.2 mb 0.00 in0.0 mm 0.00 in0.0 mm 0.00 in0.0 mm
07:00 PM 84.6°F29.2°C 65.6°F18.7°C 53% 7.5 mph SW12.1 kmh SW 15.0 mph24.1 kmh 29.95 in1014.2 mb 0.00 in0.0 mm 0.00 in0.0 mm 0.00 in0.0 mm
07:20 PM 84.2°F29.0°C 65.2°F18.4°C 53% 7.2 mph SW11.6 kmh SW 13.0 mph20.9 kmh 29.95 in1014.2 mb 0.00 in0.0 mm 0.00 in0.0 mm 0.00 in0.0 mm
07:40 PM 83.3°F28.5°C 64.9°F18.3°C 54% 7.7 mph SW12.4 kmh SW 15.0 mph24.1 kmh 29.96 in1014.6 mb 0.00 in0.0 mm 0.00 in0.0 mm 0.00 in0.0 mm
08:00 PM 81.4°F27.4°C 64.7°F18.2°C 57% 7.8 mph SW12.6 kmh SW 16.0 mph25.7 kmh 29.96 in1014.6 mb 0.00 in0.0 mm 0.00 in0.0 mm 0.00 in0.0 mm
08:20 PM 80.0°F26.7°C 64.4°F18.0°C 59% 7.1 mph SW11.4 kmh SW 14.0 mph22.5 kmh 29.97 in1014.9 mb 0.00 in0.0 mm 0.00 in0.0 mm 0.00 in0.0 mm
08:40 PM 78.7°F25.9°C 63.2°F17.3°C 59% 6.8 mph SW10.9 kmh SW 15.0 mph24.1 kmh 29.98 in1015.2 mb 0.00 in0.0 mm 0.00 in0.0 mm 0.00 in0.0 mm
09:00 PM 77.5°F25.3°C 63.0°F17.2°C 61% 6.0 mph SW9.7 kmh SW 12.0 mph19.3 kmh 29.98 in1015.2 mb 0.00 in0.0 mm 0.00 in0.0 mm 0.00 in0.0 mm
09:20 PM 76.7°F24.8°C 62.2°F16.8°C 61% 4.7 mph SW7.6 kmh SW 9.0 mph14.5 kmh 29.99 in1015.6 mb 0.00 in0.0 mm 0.00 in0.0 mm 0.00 in0.0 mm
09:40 PM 76.0°F24.4°C 62.0°F16.7°C 62% 4.4 mph SW7.1 kmh SW 10.0 mph16.1 kmh 30.00 in1015.9 mb 0.00 in0.0 mm 0.00 in0.0 mm 0.00 in0.0 mm
10:00 PM 75.5°F24.2°C 61.1°F16.2°C 61% 3.0 mph SW4.8 kmh SW 8.0 mph12.9 kmh 30.01 in1016.3 mb 0.00 in0.0 mm 0.00 in0.0 mm 0.00 in0.0 mm
10:20 PM 75.0°F23.9°C 61.1°F16.2°C 62% 3.1 mph SSW5.0 kmh SSW 8.0 mph12.9 kmh 30.02 in1016.6 mb 0.00 in0.0 mm 0.00 in0.0 mm 0.00 in0.0 mm
10:40 PM 74.6°F23.7°C 61.6°F16.4°C 64% 2.5 mph SW4.0 kmh SW 10.0 mph16.1 kmh 30.02 in1016.6 mb 0.00 in0.0 mm 0.00 in0.0 mm 0.00 in0.0 mm
11:00 PM 73.6°F23.1°C 62.0°F16.7°C 67% 3.9 mph SW6.3 kmh SW 9.0 mph14.5 kmh 30.02 in1016.6 mb 0.00 in0.0 mm 0.00 in0.0 mm 0.00 in0.0 mm
11:20 PM 73.1°F22.8°C 62.3°F16.8°C 69% 2.7 mph S4.3 kmh S 8.0 mph12.9 kmh 30.02 in1016.6 mb 0.00 in0.0 mm 0.00 in0.0 mm 0.00 in0.0 mm
11:40 PM 72.4°F22.4°C 62.5°F16.9°C 71% 4.0 mph SSW6.4 kmh SSW 12.0 mph19.3 kmh 30.02 in1016.6 mb 0.00 in0.0 mm 0.00 in0.0 mm 0.00 in0.0 mm